Time;durP1;ratioP1;P1;durP2;ratioP2;P2;SDS_P1;SDS_P2;PMS_P1;PMS_P2;Temp;Humidity;BMP_temperature;BMP_pressure;BME280_temperature;BME280_humidity;BME280_pressure;Samples;Min_cycle;Max_cycle;Signal;HPM_P1;HPM_P2
2022/08/05 00:00:12;;;;;;;7.10;2.25;;;18.70;99.90;;;;;;4736544;30;20048;-87
2022/08/05 00:02:38;;;;;;;6.20;2.17;;;18.60;99.90;;;;;;4721931;30;20058;-88
2022/08/05 00:05:07;;;;;;;5.35;1.58;;;18.60;99.90;;;;;;4736629;30;20445;-87
2022/08/05 00:07:32;;;;;;;12.32;2.63;;;18.60;99.90;;;;;;4722528;30;20052;-87
2022/08/05 00:09:58;;;;;;;5.57;1.80;;;18.60;99.90;;;;;;4721876;30;20040;-88
2022/08/05 00:12:24;;;;;;;9.60;2.83;;;18.50;99.90;;;;;;4721784;30;20075;-87
2022/08/05 00:15:02;;;;;;;6.70;2.10;;;18.50;99.90;;;;;;4739743;30;20109;-87
2022/08/05 00:17:28;;;;;;;5.57;2.20;;;18.50;99.90;;;;;;4739558;30;20055;-88
2022/08/05 00:19:54;;;;;;;7.25;2.90;;;18.40;99.90;;;;;;4739462;30;20512;-88
2022/08/05 00:22:19;;;;;;;11.45;2.47;;;18.40;99.90;;;;;;4739348;30;20500;-88
2022/08/05 00:24:51;;;;;;;7.35;2.60;;;18.40;99.90;;;;;;4739636;30;20051;-88
2022/08/05 00:27:17;;;;;;;7.03;2.58;;;18.40;99.90;;;;;;4739367;30;20059;-88
2022/08/05 00:29:43;;;;;;;9.73;2.60;;;18.40;99.90;;;;;;4738934;30;20048;-87
2022/08/05 00:32:11;;;;;;;7.32;2.50;;;18.30;99.90;;;;;;4738940;30;20043;-88
2022/08/05 00:34:39;;;;;;;7.47;2.97;;;18.30;99.90;;;;;;4738998;30;20048;-88
2022/08/05 00:37:05;;;;;;;6.18;2.60;;;18.20;99.90;;;;;;4735604;30;20102;-88
2022/08/05 00:39:31;;;;;;;9.43;2.90;;;18.20;99.90;;;;;;4721550;30;20114;-88
2022/08/05 00:42:06;;;;;;;8.15;3.22;;;18.20;99.90;;;;;;4721450;30;20056;-87
2022/08/05 00:44:32;;;;;;;8.57;2.28;;;18.20;99.90;;;;;;4721669;30;20138;-88
2022/08/05 00:47:03;;;;;;;7.13;2.35;;;18.10;99.90;;;;;;4721781;30;20143;-87
2022/08/05 00:49:29;;;;;;;6.75;2.40;;;18.00;99.90;;;;;;4721211;30;20055;-88
2022/08/05 00:51:54;;;;;;;11.07;3.08;;;18.00;99.90;;;;;;4721242;30;20044;-87
2022/08/05 00:54:33;;;;;;;5.90;2.42;;;18.00;99.90;;;;;;4720786;30;20064;-88
2022/08/05 00:56:59;;;;;;;10.45;2.55;;;18.00;99.90;;;;;;4721769;30;20091;-88
2022/08/05 00:59:27;;;;;;;7.38;1.83;;;18.00;99.90;;;;;;4721301;30;20082;-88
2022/08/05 01:01:53;;;;;;;9.88;2.78;;;18.00;99.90;;;;;;4721315;30;20044;-87
2022/08/05 01:04:22;;;;;;;8.27;2.65;;;18.00;99.90;;;;;;4720757;30;20058;-88
2022/08/05 01:06:48;;;;;;;7.00;2.22;;;18.00;99.90;;;;;;4721488;30;20435;-87
2022/08/05 01:09:14;;;;;;;6.72;2.05;;;18.00;99.90;;;;;;4721107;30;20090;-87
2022/08/05 01:11:42;;;;;;;7.95;2.30;;;18.00;99.90;;;;;;4720784;30;20143;-87
2022/08/05 01:14:19;;;;;;;7.53;2.53;;;18.00;99.90;;;;;;4720804;30;20452;-87
2022/08/05 01:16:53;;;;;;;7.57;2.35;;;18.00;99.90;;;;;;4721229;30;20512;-88
2022/08/05 01:19:33;;;;;;;6.50;2.25;;;18.10;99.90;;;;;;4735036;30;20048;-87
2022/08/05 01:22:11;;;;;;;7.10;1.92;;;18.20;99.90;;;;;;4720541;30;20094;-88
2022/08/05 01:24:43;;;;;;;7.65;2.25;;;18.20;99.90;;;;;;4721069;30;20135;-87
2022/08/05 01:27:56;;;;;;;12.85;2.25;;;18.20;99.90;;;;;;4721052;30;20147;-87
2022/08/05 01:30:23;;;;;;;8.43;2.17;;;18.10;99.90;;;;;;4735440;30;20067;-90
2022/08/05 01:32:55;;;;;;;8.40;2.17;;;18.20;99.90;;;;;;4720313;30;20056;-90
2022/08/05 01:35:30;;;;;;;11.83;2.50;;;18.20;99.90;;;;;;4720334;30;20099;-90
2022/08/05 01:37:58;;;;;;;6.22;1.95;;;18.20;99.90;;;;;;4721380;30;20119;-89
2022/08/05 01:40:28;;;;;;;5.13;1.70;;;18.20;99.90;;;;;;4720327;30;20056;-89
2022/08/05 01:42:56;;;;;;;7.15;1.90;;;18.30;99.90;;;;;;4720841;30;20044;-90
2022/08/05 01:45:23;;;;;;;9.32;2.28;;;18.30;99.90;;;;;;4720109;30;20072;-89
2022/08/05 01:47:50;;;;;;;8.13;2.00;;;18.30;99.90;;;;;;4720561;30;20048;-90
2022/08/05 01:50:23;;;;;;;9.35;1.70;;;18.30;99.90;;;;;;4720148;30;20082;-90
2022/08/05 01:52:52;;;;;;;7.47;1.67;;;18.30;99.90;;;;;;4720408;30;20079;-90
2022/08/05 01:55:27;;;;;;;6.47;1.83;;;18.30;99.90;;;;;;4720235;30;20060;-89
2022/08/05 01:57:56;;;;;;;8.82;2.20;;;18.30;99.90;;;;;;4720519;30;20138;-89
2022/08/05 02:00:24;;;;;;;6.80;1.73;;;18.20;99.90;;;;;;4720136;30;20323;-89
2022/08/05 02:03:01;;;;;;;9.30;1.80;;;18.20;99.90;;;;;;4720328;30;20052;-90
2022/08/05 02:05:37;;;;;;;5.75;1.83;;;18.20;99.90;;;;;;4720169;30;20490;-90
2022/08/05 02:08:04;;;;;;;9.15;2.13;;;18.20;99.90;;;;;;4720690;30;20168;-90
2022/08/05 02:10:51;;;;;;;8.02;2.22;;;18.20;99.90;;;;;;4719901;30;20052;-90
2022/08/05 02:14:18;;;;;;;8.20;2.03;;;18.20;99.90;;;;;;4719663;30;20060;-90
2022/08/05 02:16:50;;;;;;;8.35;2.35;;;18.20;99.90;;;;;;4717270;30;20143;-88
2022/08/05 02:22:30;;;;;;;7.72;1.88;;;18.20;99.90;;;;;;4734596;30;20494;-88
2022/08/05 02:25:03;;;;;;;7.70;1.80;;;18.10;99.90;;;;;;4719970;30;20048;-88
2022/08/05 02:27:38;;;;;;;7.88;1.90;;;18.10;99.90;;;;;;4720207;30;20139;-88
2022/08/05 02:30:06;;;;;;;5.72;1.60;;;18.20;99.90;;;;;;4720218;30;20527;-88
2022/08/05 02:32:34;;;;;;;5.53;1.90;;;18.20;99.90;;;;;;4719948;30;20143;-88
2022/08/05 02:35:04;;;;;;;7.53;2.08;;;18.10;99.90;;;;;;4720562;30;20114;-89
2022/08/05 02:37:32;;;;;;;10.27;2.33;;;18.10;99.90;;;;;;4725411;30;20052;-89
2022/08/05 02:39:59;;;;;;;9.25;2.15;;;18.10;99.90;;;;;;4734643;30;20056;-89
2022/08/05 02:42:32;;;;;;;6.78;1.88;;;18.10;99.90;;;;;;4734247;30;20134;-88
2022/08/05 02:44:59;;;;;;;;;;;18.10;99.90;;;;;;4735476;30;20086;-88
2022/08/05 02:47:26;;;;;;;11.00;1.92;;;18.00;99.90;;;;;;4748384;30;19973;-87
2022/08/05 02:49:52;;;;;;;8.70;1.98;;;18.00;99.90;;;;;;4734447;30;20060;-88
2022/08/05 02:52:24;;;;;;;8.13;2.40;;;18.00;99.90;;;;;;4733910;30;20048;-87
2022/08/05 02:54:51;;;;;;;7.38;2.10;;;18.00;99.90;;;;;;4734993;30;20083;-87
2022/08/05 02:57:18;;;;;;;7.68;1.85;;;18.00;99.90;;;;;;4734423;30;20054;-89
2022/08/05 02:59:47;;;;;;;6.25;1.83;;;18.00;99.90;;;;;;4719203;30;20044;-89
2022/08/05 03:02:16;;;;;;;8.68;2.60;;;18.00;99.90;;;;;;4734308;30;20064;-88
2022/08/05 03:04:51;;;;;;;6.85;2.20;;;18.00;99.90;;;;;;4717289;30;20060;-88
2022/08/05 03:07:18;;;;;;;10.95;2.60;;;18.00;99.90;;;;;;4733631;30;20056;-88
2022/08/05 03:09:50;;;;;;;11.32;2.65;;;18.00;99.90;;;;;;4734317;30;20063;-89
2022/08/05 03:12:30;;;;;;;10.48;2.33;;;18.00;99.90;;;;;;4733833;30;20055;-88
2022/08/05 03:15:06;;;;;;;5.43;2.00;;;18.00;99.90;;;;;;4731247;30;20057;-89
2022/08/05 03:17:40;;;;;;;6.13;2.05;;;18.00;99.90;;;;;;4731339;30;20097;-88
2022/08/05 03:20:14;;;;;;;12.45;3.05;;;18.00;99.90;;;;;;4734006;30;20063;-88
2022/08/05 03:22:49;;;;;;;11.60;2.67;;;18.00;99.90;;;;;;4734703;30;20062;-88
2022/08/05 03:25:19;;;;;;;7.43;2.10;;;18.00;99.90;;;;;;4734208;30;20052;-88
2022/08/05 03:27:45;;;;;;;6.57;2.13;;;18.00;99.90;;;;;;4734282;30;20051;-88
2022/08/05 03:30:11;;;;;;;9.95;2.17;;;18.00;99.90;;;;;;4733799;30;20558;-89
2022/08/05 03:32:39;;;;;;;10.45;2.20;;;18.00;99.90;;;;;;4734205;30;20167;-89
2022/08/05 03:35:06;;;;;;;8.32;2.10;;;18.00;99.90;;;;;;4734223;30;20044;-88
2022/08/05 03:37:43;;;;;;;8.63;1.92;;;18.00;99.90;;;;;;4734072;30;20075;-87
2022/08/05 03:40:09;;;;;;;7.70;1.83;;;18.00;99.90;;;;;;4733467;30;20044;-89
2022/08/05 03:42:35;;;;;;;10.05;2.53;;;18.00;99.90;;;;;;4733846;30;20048;-88
2022/08/05 03:45:21;;;;;;;9.77;2.40;;;18.00;99.90;;;;;;4734356;30;20781;-89
2022/08/05 03:47:46;;;;;;;9.23;2.03;;;17.90;99.90;;;;;;4718621;30;20064;-89
2022/08/05 03:50:17;;;;;;;6.05;1.85;;;17.90;99.90;;;;;;4733962;30;20112;-89
2022/08/05 03:53:11;;;;;;;11.77;2.45;;;17.90;99.90;;;;;;4733914;30;20084;-89
2022/08/05 03:55:45;;;;;;;8.52;2.20;;;18.00;99.90;;;;;;4733928;30;20524;-89
2022/08/05 03:58:15;;;;;;;9.98;2.15;;;17.90;99.90;;;;;;4733700;30;20060;-89
2022/08/05 04:00:43;;;;;;;6.15;1.80;;;17.90;99.90;;;;;;4733995;30;20063;-88
2022/08/05 04:03:11;;;;;;;16.90;2.72;;;17.90;99.90;;;;;;4733307;30;20092;-89
2022/08/05 04:05:38;;;;;;;5.78;1.60;;;17.90;99.90;;;;;;4734108;30;20504;-89
2022/08/05 04:08:08;;;;;;;6.80;1.73;;;17.90;99.90;;;;;;4733150;30;20048;-89
2022/08/05 04:10:43;;;;;;;6.43;1.90;;;17.90;99.90;;;;;;4735754;30;20414;-89
2022/08/05 04:13:37;;;;;;;8.85;2.03;;;17.90;99.90;;;;;;4735644;30;20151;-89
2022/08/05 04:16:07;;;;;;;10.15;2.38;;;17.90;99.90;;;;;;4722140;30;20110;-89
2022/08/05 04:18:39;;;;;;;8.70;2.22;;;17.90;99.90;;;;;;4737320;30;20125;-89
2022/08/05 04:21:06;;;;;;;6.63;1.83;;;17.90;99.90;;;;;;4743108;30;20047;-88
2022/08/05 04:23:34;;;;;;;5.50;2.13;;;17.90;99.90;;;;;;4736289;30;20314;-88
2022/08/05 04:26:06;;;;;;;6.07;1.58;;;17.80;99.90;;;;;;4737120;30;20143;-89
2022/08/05 04:28:31;;;;;;;6.15;2.00;;;17.90;99.90;;;;;;4736688;30;20052;-87
2022/08/05 04:31:10;;;;;;;6.10;2.00;;;17.80;99.90;;;;;;4736588;30;20051;-89
2022/08/05 04:33:35;;;;;;;5.45;1.77;;;17.80;99.90;;;;;;4736213;30;20094;-89
2022/08/05 04:36:05;;;;;;;4.88;1.50;;;17.80;99.90;;;;;;4736152;30;20052;-88
2022/08/05 04:38:30;;;;;;;6.72;2.05;;;17.80;99.90;;;;;;4751861;30;20724;-89
2022/08/05 04:40:56;;;;;;;7.05;1.70;;;17.90;99.90;;;;;;4738950;30;20150;-89
2022/08/05 04:43:22;;;;;;;5.50;1.90;;;17.90;99.90;;;;;;4739129;30;20048;-89
2022/08/05 04:45:50;;;;;;;6.43;2.00;;;17.90;99.90;;;;;;4739191;30;20087;-89
2022/08/05 04:48:23;;;;;;;5.88;2.55;;;17.80;99.90;;;;;;4739531;30;20071;-88
2022/08/05 04:51:01;;;;;;;7.00;2.50;;;17.90;99.90;;;;;;4739465;30;20055;-89
2022/08/05 04:53:27;;;;;;;7.00;2.13;;;17.90;99.90;;;;;;4738679;30;20477;-90
2022/08/05 04:56:01;;;;;;;11.05;2.17;;;17.90;99.90;;;;;;4738994;30;20052;-88
2022/08/05 04:58:27;;;;;;;4.35;1.77;;;18.00;99.90;;;;;;4731583;30;20359;-89
2022/08/05 05:00:53;;;;;;;6.63;1.88;;;18.00;99.90;;;;;;4736143;30;20052;-89
2022/08/05 05:03:19;;;;;;;5.70;1.85;;;18.00;99.90;;;;;;4751022;30;20159;-89
2022/08/05 05:05:45;;;;;;;6.43;2.03;;;18.00;99.90;;;;;;4750215;30;20052;-89
2022/08/05 05:08:16;;;;;;;14.63;2.55;;;18.00;99.90;;;;;;4720058;30;20056;-89
2022/08/05 05:10:46;;;;;;;5.65;2.13;;;18.00;99.90;;;;;;4734415;30;20052;-89
2022/08/05 05:13:19;;;;;;;8.43;2.17;;;18.00;99.90;;;;;;4721009;30;20063;-89
2022/08/05 05:15:45;;;;;;;7.38;1.95;;;18.00;99.90;;;;;;4732779;30;20052;-89
2022/08/05 05:18:14;;;;;;;6.72;2.03;;;18.10;99.90;;;;;;4732704;30;20143;-89
2022/08/05 05:20:45;;;;;;;11.68;2.50;;;18.10;99.90;;;;;;4703819;30;20056;-89
2022/08/05 05:23:23;;;;;;;9.82;2.20;;;18.10;99.90;;;;;;4703080;30;20060;-89
2022/08/05 05:25:54;;;;;;;8.70;2.28;;;18.10;99.90;;;;;;4733224;30;20470;-90
2022/08/05 05:28:23;;;;;;;6.13;2.28;;;18.10;99.90;;;;;;4720462;30;20132;-90
2022/08/05 05:30:51;;;;;;;7.60;1.92;;;18.10;99.90;;;;;;4721149;30;20580;-89
2022/08/05 05:33:18;;;;;;;5.65;1.77;;;18.10;99.90;;;;;;4717369;30;20052;-89
2022/08/05 05:35:45;;;;;;;6.93;1.83;;;18.10;99.90;;;;;;4750362;30;20048;-89
2022/08/05 05:38:16;;;;;;;6.93;2.15;;;18.10;99.90;;;;;;4720834;30;20052;-90
2022/08/05 05:40:47;;;;;;;6.30;1.70;;;18.10;99.90;;;;;;4720841;30;20060;-90
2022/08/05 05:43:22;;;;;;;7.18;2.08;;;18.10;99.90;;;;;;4721217;30;20048;-89
2022/08/05 05:45:48;;;;;;;5.18;2.00;;;18.20;99.90;;;;;;4738247;30;20056;-90
2022/08/05 05:48:14;;;;;;;6.68;2.10;;;18.10;99.90;;;;;;4738364;30;20047;-90
2022/08/05 05:50:48;;;;;;;5.55;1.75;;;18.10;99.90;;;;;;4738029;30;20105;-90
2022/08/05 05:53:23;;;;;;;4.60;1.70;;;18.10;99.90;;;;;;4737830;30;20493;-89
2022/08/05 05:55:49;;;;;;;6.82;2.25;;;18.00;99.90;;;;;;4737853;30;20093;-89
2022/08/05 05:58:18;;;;;;;5.20;1.92;;;18.00;99.90;;;;;;4738088;30;20048;-89
2022/08/05 06:00:47;;;;;;;7.35;2.28;;;18.00;99.90;;;;;;4738790;30;20113;-89
2022/08/05 06:03:18;;;;;;;8.85;2.53;;;18.00;99.90;;;;;;4737481;30;20108;-88
2022/08/05 06:05:49;;;;;;;13.55;2.38;;;17.90;99.90;;;;;;4767150;30;20512;-89
2022/08/05 06:08:23;;;;;;;5.45;1.98;;;17.90;99.90;;;;;;4737914;30;20044;-89
2022/08/05 06:11:00;;;;;;;6.82;2.53;;;17.90;99.90;;;;;;4767833;30;20043;-90
2022/08/05 06:13:31;;;;;;;6.75;2.40;;;17.80;99.90;;;;;;4738241;30;20842;-90
2022/08/05 06:16:00;;;;;;;7.03;2.50;;;17.90;99.90;;;;;;4755462;30;20094;-90
2022/08/05 06:18:36;;;;;;;8.63;2.65;;;18.00;99.90;;;;;;4755322;30;20075;-90
2022/08/05 06:21:05;;;;;;;4.47;2.15;;;18.10;99.90;;;;;;4754672;30;20299;-90
2022/08/05 06:23:37;;;;;;;6.03;2.00;;;18.20;99.90;;;;;;4750460;30;20083;-85
2022/08/05 06:26:05;;;;;;;3.73;1.40;;;18.30;99.90;;;;;;4734470;30;20146;-90
2022/08/05 06:28:31;;;;;;;9.88;2.05;;;18.40;99.90;;;;;;4749321;30;20059;-85
2022/08/05 06:31:07;;;;;;;;;;;;;;;;;;;;;
2022/08/05 06:34:01;;;;;;;5.70;1.45;;;18.50;99.90;;;;;;4750436;30;20079;-86
2022/08/05 06:36:35;;;;;;;4.35;1.17;;;18.70;99.90;;;;;;4750397;30;20058;-87
2022/08/05 06:39:00;;;;;;;4.65;1.50;;;18.80;99.90;;;;;;4736321;30;20105;-87
2022/08/05 06:41:28;;;;;;;8.82;1.58;;;18.90;99.90;;;;;;4763205;30;20527;-86
2022/08/05 06:44:13;;;;;;;4.75;1.15;;;19.00;99.90;;;;;;4735997;30;20055;-87
2022/08/05 06:46:39;;;;;;;3.30;1.00;;;19.10;99.90;;;;;;4765869;30;20143;-89
2022/08/05 06:49:25;;;;;;;9.98;1.20;;;19.20;99.90;;;;;;4752343;30;20058;-89
2022/08/05 06:51:57;;;;;;;5.68;1.10;;;19.20;99.90;;;;;;4751573;30;20064;-89
2022/08/05 06:54:46;;;;;;;4.53;0.90;;;19.30;99.90;;;;;;4737178;30;20047;-89
2022/08/05 06:57:24;;;;;;;6.80;1.00;;;19.30;99.90;;;;;;4736378;30;20056;-87
2022/08/05 07:00:14;;;;;;;2.85;0.60;;;19.40;99.90;;;;;;4737005;30;20044;-87
2022/08/05 07:03:15;;;;;;;4.95;0.80;;;19.50;99.90;;;;;;4765201;30;20146;-88
2022/08/05 07:06:04;;;;;;;2.63;0.52;;;19.70;99.90;;;;;;4694633;30;20079;-87
2022/08/05 07:08:43;;;;;;;2.95;0.60;;;19.70;99.90;;;;;;4751236;30;20496;-91
2022/08/05 07:11:15;;;;;;;3.88;0.40;;;19.70;99.90;;;;;;4737275;30;20058;-90
2022/08/05 07:19:34;;;;;;;3.85;0.40;;;19.90;99.90;;;;;;4765574;29;20501;-87
2022/08/05 07:22:00;;;;;;;4.45;0.68;;;20.10;99.90;;;;;;4736778;30;20051;-88
2022/08/05 07:24:26;;;;;;;3.05;0.60;;;20.20;99.90;;;;;;4765990;30;20504;-88
2022/08/05 07:26:52;;;;;;;2.50;0.77;;;20.20;99.90;;;;;;4758380;30;20412;-90
2022/08/05 07:29:23;;;;;;;2.15;0.63;;;20.20;99.90;;;;;;4754189;30;20492;-89
2022/08/05 07:31:49;;;;;;;3.17;0.40;;;20.10;99.90;;;;;;4754624;30;20146;-89
2022/08/05 07:34:15;;;;;;;1.80;0.47;;;20.20;99.90;;;;;;4739602;30;20201;-88
2022/08/05 07:36:41;;;;;;;1.95;0.50;;;20.40;99.90;;;;;;4754267;30;20501;-90
2022/08/05 07:39:08;;;;;;;3.42;0.60;;;20.50;99.90;;;;;;4754842;30;20051;-90
2022/08/05 07:41:35;;;;;;;5.53;0.90;;;20.60;99.90;;;;;;4754554;30;20054;-91
2022/08/05 07:44:06;;;;;;;2.05;0.40;;;20.60;99.90;;;;;;4754869;29;20136;-93
2022/08/05 07:46:38;;;;;;;4.68;0.63;;;20.60;99.90;;;;;;4756093;30;20458;-89
2022/08/05 07:49:16;;;;;;;4.73;0.93;;;20.50;99.90;;;;;;4757220;30;20051;-94
2022/08/05 07:51:43;;;;;;;4.03;1.27;;;20.50;99.90;;;;;;4759079;30;20047;-92
2022/08/05 07:54:12;;;;;;;12.68;0.70;;;20.70;99.90;;;;;;4757647;30;20412;-90
2022/08/05 07:56:41;;;;;;;3.17;0.47;;;20.90;99.90;;;;;;4757603;30;20061;-90
2022/08/05 07:59:24;;;;;;;2.65;0.30;;;21.00;99.90;;;;;;4758259;30;20544;-90
2022/08/05 08:01:52;;;;;;;2.58;0.65;;;21.10;99.90;;;;;;4757825;30;20050;-90
2022/08/05 08:04:24;;;;;;;5.15;0.57;;;21.00;99.90;;;;;;4757938;30;20048;-90
2022/08/05 08:06:50;;;;;;;2.70;0.38;;;20.80;99.90;;;;;;4758219;30;20093;-91
2022/08/05 08:09:26;;;;;;;1.92;0.30;;;20.70;99.90;;;;;;4757984;30;20079;-91
2022/08/05 08:11:59;;;;;;;5.03;0.47;;;20.90;99.90;;;;;;4757998;30;20114;-89
2022/08/05 08:14:29;;;;;;;4.93;0.60;;;21.10;99.90;;;;;;4756880;30;20066;-89
2022/08/05 08:16:55;;;;;;;3.35;0.50;;;21.40;99.90;;;;;;4757787;30;20055;-91
2022/08/05 08:19:23;;;;;;;3.90;0.40;;;21.50;99.90;;;;;;4757468;30;20127;-91
2022/08/05 08:21:57;;;;;;;3.13;0.43;;;21.40;99.90;;;;;;4757982;30;20560;-91
2022/08/05 08:24:25;;;;;;;3.65;0.57;;;21.30;99.90;;;;;;4757645;30;20055;-92
2022/08/05 08:26:51;;;;;;;3.58;0.70;;;21.30;99.90;;;;;;4757722;30;20062;-91
2022/08/05 08:29:17;;;;;;;2.50;0.40;;;21.40;99.90;;;;;;4757125;30;20047;-90
2022/08/05 08:31:47;;;;;;;4.10;0.65;;;21.50;99.90;;;;;;4756812;30;20091;-90
2022/08/05 08:34:24;;;;;;;3.00;0.40;;;21.70;99.90;;;;;;4757551;30;20048;-89
2022/08/05 08:37:10;;;;;;;5.55;0.60;;;21.80;99.90;;;;;;4757220;30;20039;-91
2022/08/05 08:39:36;;;;;;;4.15;0.30;;;21.80;99.90;;;;;;4757125;30;20047;-90
2022/08/05 08:42:03;;;;;;;8.63;0.88;;;21.80;99.90;;;;;;4757569;30;20390;-91
2022/08/05 08:44:31;;;;;;;3.00;0.50;;;21.70;99.90;;;;;;4757029;30;20051;-89
2022/08/05 08:47:10;;;;;;;8.07;0.50;;;21.50;99.90;;;;;;4757105;30;20189;-89
2022/08/05 08:49:38;;;;;;;3.50;0.40;;;21.00;99.90;;;;;;4771965;30;20158;-89
2022/08/05 08:52:12;;;;;;;3.65;0.60;;;20.70;99.90;;;;;;4771558;30;20055;-90
2022/08/05 08:54:41;;;;;;;2.95;0.50;;;20.60;99.90;;;;;;4757152;30;20051;-92
2022/08/05 08:57:07;;;;;;;5.55;0.80;;;20.60;99.90;;;;;;4770296;30;20080;-91
2022/08/05 08:59:34;;;;;;;6.35;0.70;;;21.00;99.90;;;;;;4771977;30;20493;-89
2022/08/05 09:02:06;;;;;;;4.63;0.60;;;21.30;99.90;;;;;;4771568;30;20051;-89
2022/08/05 09:04:36;;;;;;;6.05;0.52;;;21.50;99.90;;;;;;4771698;30;20054;-90
2022/08/05 09:07:05;;;;;;;6.03;0.60;;;21.40;99.90;;;;;;4771649;30;20047;-90
2022/08/05 09:09:35;;;;;;;3.03;0.55;;;21.10;99.90;;;;;;4771535;30;20051;-89
2022/08/05 09:12:11;;;;;;;4.05;0.40;;;20.90;99.90;;;;;;4771089;30;20127;-89
2022/08/05 09:14:39;;;;;;;26.40;0.98;;;20.80;99.90;;;;;;4770932;30;20150;-90
2022/08/05 09:17:11;;;;;;;4.22;0.52;;;20.90;99.90;;;;;;4786143;30;20094;-92
2022/08/05 09:19:37;;;;;;;1.60;0.50;;;21.00;99.90;;;;;;4771281;30;20043;-92
2022/08/05 09:22:03;;;;;;;7.70;0.60;;;21.20;99.90;;;;;;4771274;30;20292;-92
2022/08/05 09:24:29;;;;;;;6.50;0.45;;;21.20;99.90;;;;;;4771251;30;20051;-91
2022/08/05 09:27:10;;;;;;;0.90;0.30;;;21.30;99.90;;;;;;4766864;30;20416;-89
2022/08/05 09:29:48;;;;;;;4.30;0.50;;;21.40;99.90;;;;;;4756536;30;20051;-90
2022/08/05 09:32:14;;;;;;;6.07;0.63;;;21.40;99.90;;;;;;4755845;30;20043;-91
2022/08/05 09:35:01;;;;;;;3.67;0.50;;;21.50;99.90;;;;;;4757123;30;20055;-92
2022/08/05 09:37:28;;;;;;;9.43;1.30;;;21.60;99.90;;;;;;4755856;30;20101;-90
2022/08/05 09:40:05;;;;;;;3.95;1.30;;;21.70;99.90;;;;;;4755972;30;20055;-92
2022/08/05 09:42:43;;;;;;;3.65;0.50;;;21.60;99.90;;;;;;4756113;30;20138;-90
2022/08/05 09:45:18;;;;;;;4.88;0.70;;;21.50;99.90;;;;;;4755887;30;20104;-89
2022/08/05 09:47:45;;;;;;;2.83;0.40;;;21.70;99.90;;;;;;4756230;30;20569;-90
2022/08/05 09:50:21;;;;;;;3.25;0.57;;;21.50;99.90;;;;;;4755742;30;20461;-93
2022/08/05 09:53:23;;;;;;;5.50;0.50;;;21.30;99.90;;;;;;4756141;30;20130;-90
2022/08/05 09:55:55;;;;;;;9.02;0.90;;;21.30;99.90;;;;;;4756198;30;20100;-90
2022/08/05 09:58:21;;;;;;;2.00;0.20;;;21.40;99.90;;;;;;4755936;30;20049;-92
2022/08/05 10:00:59;;;;;;;2.95;0.38;;;21.40;99.90;;;;;;4755921;30;20112;-90
2022/08/05 10:03:26;;;;;;;3.38;0.50;;;21.30;99.90;;;;;;4755173;30;20054;-89
2022/08/05 10:06:27;;;;;;;7.68;0.52;;;21.40;99.90;;;;;;4755904;30;20059;-91
2022/08/05 10:09:29;;;;;;;5.13;0.50;;;21.50;99.90;;;;;;4770219;30;20061;-91
2022/08/05 10:12:05;;;;;;;2.72;0.40;;;21.70;99.90;;;;;;4769921;30;20143;-90
2022/08/05 10:14:31;;;;;;;3.22;0.30;;;21.80;99.90;;;;;;4754502;29;20059;-88
2022/08/05 10:17:18;;;;;;;4.22;0.35;;;21.90;99.90;;;;;;4755192;30;20051;-89
2022/08/05 10:19:48;;;;;;;2.95;0.30;;;21.90;99.90;;;;;;4754248;30;20109;-90
2022/08/05 10:22:26;;;;;;;2.88;0.43;;;22.00;99.90;;;;;;4755559;30;20373;-96
2022/08/05 10:25:00;;;;;;;10.85;0.70;;;22.00;99.90;;;;;;4755774;30;20062;-87
2022/08/05 10:27:28;;;;;;;2.53;0.30;;;21.90;99.90;;;;;;4755000;30;20138;-88
2022/08/05 10:30:12;;;;;;;3.20;0.35;;;21.70;99.90;;;;;;4756439;30;20063;-88
2022/08/05 10:32:42;;;;;;;4.72;0.35;;;21.70;99.90;;;;;;4755161;30;20055;-90
2022/08/05 10:35:08;;;;;;;1.42;0.25;;;21.90;99.90;;;;;;4755104;30;20439;-88
2022/08/05 10:37:40;;;;;;;3.10;0.20;;;22.00;99.90;;;;;;4754138;30;20058;-88
2022/08/05 10:40:33;;;;;;;1.92;0.30;;;22.10;99.90;;;;;;4742327;30;20087;-86
2022/08/05 10:43:34;;;;;;;;;;;;;;;;;;;;;
2022/08/05 10:46:46;;;;;;;4.80;0.50;;;22.00;96.50;;;;;;4764355;30;20051;-88
2022/08/05 10:49:13;;;;;;;4.13;0.40;;;22.00;96.50;;;;;;4750926;30;20056;-88
2022/08/05 10:52:01;;;;;;;;;;;;;;;;;;;;;
2022/08/05 10:55:12;;;;;;;3.83;0.10;;;22.30;92.40;;;;;;4761167;30;20052;-87
2022/08/05 10:57:46;;;;;;;2.40;0.60;;;22.30;92.50;;;;;;4766064;30;20054;-86
2022/08/05 11:00:34;;;;;;;3.33;0.10;;;22.40;93.10;;;;;;4758694;30;20048;-90
2022/08/05 11:03:14;;;;;;;;;;;;;;;;;;;;;
2022/08/05 11:06:11;;;;;;;1.42;0.22;;;22.40;94.30;;;;;;4782568;29;20109;-89
2022/08/05 11:08:37;;;;;;;1.35;0.20;;;22.40;93.50;;;;;;4753585;30;20058;-89
2022/08/05 11:11:33;;;;;;;1.35;0.20;;;22.40;92.80;;;;;;4753856;30;20416;-87
2022/08/05 11:14:02;;;;;;;0.85;0.10;;;22.50;94.60;;;;;;4768445;30;20155;-88
2022/08/05 11:16:38;;;;;;;3.97;0.20;;;22.60;95.40;;;;;;4767514;30;20071;-87
2022/08/05 11:22:47;;;;;;;3.42;0.20;;;22.50;93.20;;;;;;4759926;30;20051;-88
2022/08/05 11:25:32;;;;;;;3.50;0.22;;;22.60;93.30;;;;;;4756630;30;20536;-89
2022/08/05 11:28:08;;;;;;;4.95;0.22;;;22.30;93.90;;;;;;4757549;30;20134;-88
2022/08/05 11:31:19;;;;;;;1.20;0.20;;;22.40;96.10;;;;;;4756906;30;20147;-90
2022/08/05 11:33:50;;;;;;;1.77;0.20;;;22.50;95.70;;;;;;4757004;30;20501;-90
2022/08/05 11:36:37;;;;;;;30.23;1.58;;;22.30;95.40;;;;;;4757768;30;20055;-89
2022/08/05 11:39:08;;;;;;;4.00;0.40;;;22.40;95.10;;;;;;4771786;30;20051;-89
2022/08/05 11:41:40;;;;;;;2.03;0.20;;;22.30;95.60;;;;;;4772015;30;20047;-89
2022/08/05 11:48:00;;;;;;;5.55;0.52;;;21.80;95.30;;;;;;4771834;30;20217;-89
2022/08/05 11:50:26;;;;;;;5.05;0.40;;;21.40;97.60;;;;;;4737497;30;20142;-89
2022/08/05 11:52:53;;;;;;;7.43;0.60;;;21.40;98.40;;;;;;4772324;30;20286;-87
2022/08/05 11:55:19;;;;;;;5.38;0.40;;;21.60;97.80;;;;;;4772077;30;20052;-89
2022/08/05 11:57:50;;;;;;;2.22;0.20;;;21.70;99.10;;;;;;4772472;30;20544;-90
2022/08/05 12:00:26;;;;;;;9.23;0.55;;;21.80;99.90;;;;;;4772392;30;20130;-88
2022/08/05 12:02:52;;;;;;;2.83;0.30;;;21.70;99.90;;;;;;4771958;30;20237;-89
2022/08/05 12:05:31;;;;;;;4.18;0.28;;;21.60;99.90;;;;;;4771914;30;20051;-89
2022/08/05 12:07:57;;;;;;;3.25;0.40;;;21.60;99.90;;;;;;4757647;30;20074;-90
2022/08/05 12:10:29;;;;;;;5.40;0.75;;;21.40;99.90;;;;;;4772391;30;20059;-88
2022/08/05 12:13:03;;;;;;;5.25;0.45;;;21.30;99.90;;;;;;4771853;30;20116;-88
2022/08/05 12:15:29;;;;;;;5.55;0.65;;;21.40;99.90;;;;;;4771380;30;20064;-89
2022/08/05 12:18:38;;;;;;;2.22;0.30;;;21.50;99.90;;;;;;4772314;30;20131;-91
2022/08/05 12:21:20;;;;;;;3.20;0.40;;;21.50;99.90;;;;;;4772423;30;20047;-91
2022/08/05 12:24:39;;;;;;;;;;;;;;;;;;;;;
2022/08/05 12:27:52;;;;;;;2.65;0.30;;;21.20;99.90;;;;;;4773058;30;20061;-95
2022/08/05 12:30:23;;;;;;;4.55;0.43;;;20.80;99.90;;;;;;4760824;29;20059;-92
2022/08/05 12:32:58;;;;;;;4.28;0.30;;;21.00;99.90;;;;;;4772702;30;20059;-93
2022/08/05 12:35:49;;;;;;;6.43;0.40;;;21.10;99.90;;;;;;4771895;30;20062;-90
2022/08/05 12:38:38;;;;;;;4.25;0.35;;;21.30;99.90;;;;;;4776067;24;20060;-87
2022/08/05 12:41:12;;;;;;;6.38;0.60;;;21.50;99.90;;;;;;4740554;30;20060;-92
2022/08/05 12:43:51;;;;;;;5.85;0.30;;;21.40;99.90;;;;;;4769089;30;20048;-90
2022/08/05 12:46:22;;;;;;;4.60;0.50;;;21.20;99.90;;;;;;4753961;30;20059;-90
2022/08/05 12:48:57;;;;;;;6.18;0.40;;;21.30;99.90;;;;;;4750298;30;20056;-90
2022/08/05 12:51:26;;;;;;;3.47;0.30;;;21.70;99.90;;;;;;4735017;30;20088;-90
2022/08/05 12:54:00;;;;;;;2.00;0.47;;;22.00;99.90;;;;;;4736261;30;20048;-94
2022/08/05 12:56:27;;;;;;;3.20;0.40;;;22.00;99.90;;;;;;4736407;30;20210;-90
2022/08/05 12:59:19;;;;;;;5.70;0.70;;;21.80;99.90;;;;;;4735975;30;20135;-94
2022/08/05 13:01:58;;;;;;;4.47;0.40;;;21.70;99.90;;;;;;4736595;30;20048;-90
2022/08/05 13:04:42;;;;;;;3.55;0.40;;;21.60;99.90;;;;;;4736303;30;20052;-90
2022/08/05 13:07:14;;;;;;;1.67;0.40;;;21.70;99.90;;;;;;4736775;30;20059;-90
2022/08/05 13:09:49;;;;;;;3.13;0.40;;;21.60;99.90;;;;;;4736459;30;20087;-89
2022/08/05 13:12:16;;;;;;;2.85;0.50;;;21.50;99.90;;;;;;4735859;30;20060;-92
2022/08/05 13:14:48;;;;;;;2.55;0.38;;;21.30;99.90;;;;;;4736073;30;20094;-91
2022/08/05 13:17:15;;;;;;;3.92;0.43;;;21.00;99.90;;;;;;4736007;30;20048;-91
2022/08/05 13:19:59;;;;;;;4.93;0.30;;;20.90;99.90;;;;;;4736413;30;20110;-91
2022/08/05 13:22:25;;;;;;;4.43;0.38;;;20.80;99.90;;;;;;4735731;30;20052;-90
2022/08/05 13:24:51;;;;;;;4.38;0.40;;;20.70;99.90;;;;;;4736032;30;20048;-92
2022/08/05 13:27:25;;;;;;;2.15;0.40;;;20.60;99.90;;;;;;4735339;30;20056;-90
2022/08/05 13:30:12;;;;;;;1.02;0.20;;;20.50;99.90;;;;;;4735735;30;20048;-91
2022/08/05 13:32:40;;;;;;;2.47;0.28;;;20.40;99.90;;;;;;4734944;30;20473;-91
2022/08/05 13:35:14;;;;;;;1.85;0.65;;;20.30;99.90;;;;;;4735842;30;20052;-91
2022/08/05 13:37:41;;;;;;;7.05;0.50;;;20.30;99.90;;;;;;4746495;30;20122;-90
2022/08/05 13:40:32;;;;;;;5.47;0.43;;;20.40;99.90;;;;;;4739079;30;20177;-90